Charlotte, Tennessee
Current Conditions -  °F | °C
As of 5:21 AM on Tuesday 21 Oct 2014 (Local Time) from KCKV Reporting Station
Haze Haze  
Wind Chill: 47°   Ceiling: Unl
Heat Index: 47°   Visibility: 1.5mi
Dew Point: 47°   Wind: 3mph
Humidity: 100%   Direction: 320°NW
Pressure: 30.02"   Gusts: NA
Location:  36.18°N, 87.34°W
Report Text: KCKV 211021Z AUTO 32003KT 1 1/2SM BR CLR 08/08 A3002 RMK AO2 T00830083
Loading
Personal Weather Stations






























Interactive Weather Map
Tropical Storm Tracking
New forecast layout! Learn more

10-Day Weather Forecast

Advertisements
Track Severe Weather on mobile